CW7619 Weather Reports


time (UTC)temp
F
wind
direction
speed
knots
gust
knots
rain 1hr
in
rain 24hr
in
rain mn
in
humidity
%
barometer
mb
20260504151022 70 337 4.3 5.2 0.00 0.00 0.00 52 1018.5
20260504150424 70 270 1.7 2.6 0.00 0.00 0.00 54 1018.6
20260504141021 66 225 0.0 1.7 0.00 0.00 0.00 67 1019.0
20260504140421 65 203 0.9 2.6 0.00 0.00 0.00 69 1019.1
20260504130422 57 0.0 0.0 0.00 0.00 0.00 91 1018.8
20260504110421 39 0.0 0.0 0.00 0.00 0.00 96 1018.3
20260504100420 39 0.0 0.0 0.00 0.00 0.00 96 1018.1
20260504081622 40 0.0 0.0 0.00 0.00 0.00 95 1018.1
20260504081020 40 0.0 0.0 0.00 0.00 0.00 95 1018.0
20260504080441 40 0.0 0.0 0.00 0.00 0.00 95 1018.1
20260504050421 43 0.0 0.0 0.00 0.00 0.00 94 1019.1
20260504045821 43 0.0 0.0 0.00 0.00 0.00 95 1019.1
20260504045241 43 0.0 0.0 0.00 0.00 0.00 94 1019.1
20260504044620 43 0.0 0.0 0.00 0.00 0.00 93 1019.2
20260504044020 43 0.0 0.0 0.00 0.00 0.00 93 1019.2
20260504043421 43 0.0 0.0 0.00 0.00 0.00 94 1019.2
20260504042820 44 0.0 0.0 0.00 0.00 0.00 94 1019.3
20260504042220 44 0.0 0.0 0.00 0.00 0.00 94 1019.4
20260504041620 44 0.0 0.0 0.00 0.00 0.00 94 1019.5
20260504041021 44 0.0 0.0 0.00 0.00 0.00 94 1019.5
20260504040501 44 0.0 0.0 0.00 0.00 0.00 93 1019.5
20260504035901 44 0.0 0.0 0.00 0.00 0.00 93 1019.5
20260504035221 44 0.0 0.0 0.00 0.00 0.00 93 1019.5
20260504034620 45 0.0 0.0 0.00 0.00 0.00 93 1019.5
20260504034041 45 0.0 0.0 0.00 0.00 0.00 93 1019.5
20260504033422 45 0.0 0.0 0.00 0.00 0.00 93 1019.4
20260504032841 45 0.0 0.0 0.00 0.00 0.00 92 1019.5
20260504032221 45 0.0 0.0 0.00 0.00 0.00 92 1019.5
20260504031620 46 0.0 0.0 0.00 0.00 0.00 92 1019.5
20260504031020 46 0.0 0.0 0.00 0.00 0.00 92 1019.5
20260504030443 46 0.0 0.0 0.00 0.00 0.00 92 1019.4
20260504025820 46 0.0 0.0 0.00 0.00 0.00 92 1019.4
20260504025221 46 0.0 0.0 0.00 0.00 0.00 92 1019.4
20260504024620 47 0.0 0.0 0.00 0.00 0.00 92 1019.4
20260504024020 47 0.0 0.0 0.00 0.00 0.00 91 1019.4
20260504023420 47 0.0 0.0 0.00 0.00 0.00 92 1019.3
20260504022820 48 0.0 0.0 0.00 0.00 0.00 91 1019.3
20260504022220 48 0.0 0.0 0.00 0.00 0.00 91 1019.2
20260504021621 48 0.0 0.0 0.00 0.00 0.00 91 1019.1
20260504021020 49 0.0 0.0 0.00 0.00 0.00 89 1019.1
20260504020524 49 0.0 0.0 0.00 0.00 0.00 89 1019.0
20260504015821 50 0.0 0.0 0.00 0.00 0.00 89 1018.9
20260504015240 50 0.0 0.0 0.00 0.00 0.00 88 1018.9
20260504014641 50 0.0 0.0 0.00 0.00 0.00 88 1018.8
20260504014021 51 0.0 0.0 0.00 0.00 0.00 87 1018.7
20260504013421 51 0.0 0.0 0.00 0.00 0.00 85 1018.6
20260504012821 52 0.0 0.0 0.00 0.00 0.00 84 1018.6
20260504012241 53 0.0 0.0 0.00 0.00 0.00 83 1018.5
20260504011620 53 0.0 0.0 0.00 0.00 0.00 81 1018.5
20260504011020 54 0.0 0.0 0.00 0.00 0.00 80 1018.4
20260504010441 55 0.0 0.0 0.00 0.00 0.00 79 1018.3
20260504005820 56 0.0 0.0 0.00 0.00 0.00 76 1018.3
20260504005223 57 0.0 0.0 0.00 0.00 0.00 75 1018.2
20260504004625 58 0.0 0.0 0.00 0.00 0.00 73 1018.2
20260504004021 60 0.0 0.0 0.00 0.00 0.00 69 1018.2
20260504003421 61 0.0 0.0 0.00 0.00 0.00 67 1018.1
20260504002820 63 0.0 0.0 0.00 0.00 0.00 62 1018.1
20260504002221 64 0.0 0.0 0.00 0.00 0.00 61 1018.0
20260504001621 65 0.0 0.0 0.00 0.00 0.00 59 1018.1
20260504001021 69 0.0 0.0 0.00 0.00 0.00 51 1018.1
20260504000421 70 0.0 0.0 0.00 0.00 0.00 49 1018.0
20260503235821 69 0.0 0.0 0.00 0.00 0.00 50 1018.0
20260503235241 70 0.0 0.0 0.00 0.00 0.00 46 1018.0
20260503234621 70 0.0 0.0 0.00 0.00 0.00 45 1018.0
20260503234022 70 0.0 0.0 0.00 0.00 0.00 45 1018.0
20260503233422 70 339 1.7 2.6 0.00 0.00 0.00 44 1018.0
20260503232821 70 325 4.3 4.3 0.00 0.00 0.00 42 1018.1
20260503232222 71 252 1.7 4.3 0.00 0.00 0.00 42 1018.0
20260503231641 71 0.0 0.9 0.00 0.00 0.00 42 1018.0
20260503231020 72 327 3.5 5.2 0.00 0.00 0.00 41 1018.0
20260503230421 72 35 2.6 4.3 0.00 0.00 0.00 41 1018.1
20260503225819 72 358 3.5 4.3 0.00 0.00 0.00 41 1018.1
20260503225301 71 332 5.2 6.1 0.00 0.00 0.00 39 1018.1
20260503224621 72 0.0 0.0 0.00 0.00 0.00 42 1018.1
20260503224020 71 340 3.5 5.2 0.00 0.00 0.00 40 1018.1
20260503223520 72 310 3.5 6.1 0.00 0.00 0.00 39 1018.1
20260503222820 73 349 4.3 5.2 0.00 0.00 0.00 38 1018.1
20260503222220 73 342 4.3 6.1 0.00 0.00 0.00 38 1018.1
20260503221620 72 276 0.9 3.5 0.00 0.00 0.00 39 1018.2
20260503221019 74 311 6.1 7.0 0.00 0.00 0.00 37 1018.2
20260503220419 75 279 2.6 3.5 0.00 0.00 0.00 36 1018.2
20260503215819 71 270 0.9 3.5 0.00 0.00 0.00 42 1018.2
20260503215220 70 45 0.9 1.7 0.00 0.00 0.00 43 1018.2
20260503214620 71 324 2.6 4.3 0.00 0.00 0.00 41 1018.3
20260503214020 70 265 2.6 3.5 0.00 0.00 0.00 40 1018.3
20260503213444 69 298 4.3 7.0 0.00 0.00 0.00 38 1018.3
20260503212924 70 258 1.7 2.6 0.00 0.00 0.00 39 1018.3
20260503212220 69 277 2.6 4.3 0.00 0.00 0.00 39 1018.4
20260503211620 70 299 2.6 4.3 0.00 0.00 0.00 39 1018.4
20260503211059 70 289 3.5 7.0 0.00 0.00 0.00 42 1018.4
20260503210419 70 301 2.6 7.8 0.00 0.00 0.00 42 1018.4
20260503205820 69 315 1.7 3.5 0.00 0.00 0.00 39 1018.4
20260503205219 69 315 5.2 7.0 0.00 0.00 0.00 38 1018.4
20260503204619 69 296 1.7 7.0 0.00 0.00 0.00 43 1018.5
20260503204020 69 342 2.6 3.5 0.00 0.00 0.00 40 1018.5
20260503203419 70 225 2.6 4.3 0.00 0.00 0.00 42 1018.6
20260503202824 69 26 5.2 10.4 0.00 0.00 0.00 40 1018.8
20260503202219 69 315 5.2 6.1 0.00 0.00 0.00 40 1018.9
20260503201637 69 1 5.2 7.0 0.00 0.00 0.00 40 1019.0
20260503201037 70 306 4.3 6.1 0.00 0.00 0.00 42 1019.1
20260503200437 69 261 1.7 4.3 0.00 0.00 0.00 44 1019.2
20260503195836 70 317 3.5 5.2 0.00 0.00 0.00 43 1019.3
20260503195257 70 317 5.2 7.0 0.00 0.00 0.00 42 1019.4
20260503194636 69 359 3.5 5.2 0.00 0.00 0.00 43 1019.5
20260503194037 70 293 3.5 5.2 0.00 0.00 0.00 43 1019.6
20260503193436 69 233 0.9 2.6 0.00 0.00 0.00 44 1019.7
20260503192838 70 263 1.7 3.5 0.00 0.00 0.00 44 1019.9
20260503192238 70 337 6.1 8.7 0.00 0.00 0.00 42 1019.9
20260503191637 70 356 1.7 5.2 0.00 0.00 0.00 44 1020.0
20260503191036 68 85 1.7 2.6 0.00 0.00 0.00 45 1020.1
20260503190436 68 316 2.6 3.5 0.00 0.00 0.00 44 1020.2
20260503185841 70 320 4.3 5.2 0.00 0.00 0.00 45 1020.2
20260503185237 69 293 2.6 6.1 0.00 0.00 0.00 45 1020.2
20260503184637 69 326 2.6 5.2 0.00 0.00 0.00 47 1020.4
20260503184036 68 225 2.6 4.3 0.00 0.00 0.00 46 1020.4
20260503183438 67 229 1.7 3.5 0.00 0.00 0.00 45 1020.4
20260503182836 69 288 3.5 5.2 0.00 0.00 0.00 46 1020.5
20260503182236 68 227 1.7 4.3 0.00 0.00 0.00 47 1020.5
20260503181657 68 259 2.6 4.3 0.00 0.00 0.00 48 1020.6
20260503181038 68 114 1.7 2.6 0.00 0.00 0.00 50 1020.6
20260503180436 68 203 0.9 1.7 0.00 0.00 0.00 51 1020.7
20260503175841 67 235 1.7 3.5 0.00 0.00 0.00 48 1020.7
20260503175236 67 68 1.7 3.5 0.00 0.00 0.00 49 1020.7
20260503174636 65 28 3.5 5.2 0.00 0.00 0.00 48 1020.8
20260503174036 66 349 6.1 9.6 0.00 0.00 0.00 50 1020.8
20260503173436 66 310 3.5 7.0 0.00 0.00 0.00 49 1020.9
20260503172857 66 333 4.3 7.8 0.00 0.00 0.00 48 1021.0
20260503172240 66 289 2.6 4.3 0.00 0.00 0.00 51 1021.0
20260503171656 65 322 2.6 6.1 0.00 0.00 0.00 51 1021.1
20260503171036 67 316 1.7 2.6 0.00 0.00 0.00 48 1021.1
20260503170436 65 270 3.5 6.1 0.00 0.00 0.00 51 1021.2